Stacja Pogody
Warszawa Praga-Północ

Szerokość 52°15'43"N Długość 21°01'22"E Wysokość 110m n.p.m.

Depesza TAF dla Warszawy

TAF EPWA 212330Z 2200/2224 28012KT CAVOK 
PROB40 TEMPO 2210/2218 28015G25KT -SHRA SCT040TCU 
BECMG 2217/2219 21003KT   
    
Stacja: Warszawa - Okęcie                                                              
Dzień miesiąca: 21, godzina: 23:30 UTC                                                           
Wiatr: kierunek 270° (zachodni), prędkość 22.2 km/h (4 w skali Beauforta)          
Widzialność:  ponad 10 km                                                                    

Prawdopodobieństwo: 40 %                                                                             
Zmiany krótkotrwałe:                                                                                  
Wiatr: kierunek 270° (zachodni), prędkość 27.8 km/h (4 w skali Beauforta), w podmuchach do 46.3 km/h (6 w skali Beauforta)
Zjawiska atmosferyczne: przelotny opad deszcz (zjawisko słabe)                                         
Zachmurzenie: 3/8 do 4/8(podstawa chmur 4000m)                                                

Zmiany krótkotrwałe:                                                                                  
Wiatr: kierunek 202.5° (południowy południowo zachodni), prędkość 5.6 km/h (2 w skali Beauforta)